Time;durP1;ratioP1;P1;durP2;ratioP2;P2;SDS_P1;SDS_P2;PMS_P1;PMS_P2;Temp;Humidity;BMP_temperature;BMP_pressure;BME280_temperature;BME280_humidity;BME280_pressure;Samples;Min_cycle;Max_cycle;Signal;HPM_P1;HPM_P2
2022/06/22 00:00:01;;;;;;;9.20;2.77;;;19.70;96.90;;;;;;5095588;28;20482;-67
2022/06/22 00:02:33;;;;;;;4.70;2.90;;;19.70;97.00;;;;;;5095620;28;20534;-65
2022/06/22 00:05:02;;;;;;;6.80;3.10;;;19.70;97.10;;;;;;5095881;28;20441;-65
2022/06/22 00:07:33;;;;;;;4.67;2.93;;;19.70;97.40;;;;;;5095811;28;20447;-66
2022/06/22 00:10:08;;;;;;;5.07;3.60;;;19.70;97.50;;;;;;5095820;28;20449;-65
2022/06/22 00:12:35;;;;;;;5.43;2.37;;;19.70;97.60;;;;;;5095876;28;20443;-65
2022/06/22 00:15:20;;;;;;;11.27;2.80;;;19.70;97.60;;;;;;5095658;28;20463;-65
2022/06/22 00:17:48;;;;;;;5.30;2.43;;;19.60;97.70;;;;;;5095445;28;20445;-65
2022/06/22 00:20:22;;;;;;;4.70;2.33;;;19.60;97.70;;;;;;5095391;28;21000;-65
2022/06/22 00:22:53;;;;;;;7.57;3.10;;;19.70;98.00;;;;;;5095523;28;20433;-65
2022/06/22 00:25:27;;;;;;;5.77;2.93;;;19.70;98.00;;;;;;5095404;28;20441;-66
2022/06/22 00:27:54;;;;;;;4.37;2.67;;;19.70;98.10;;;;;;5094888;28;20996;-65
2022/06/22 00:30:29;;;;;;;7.40;2.63;;;19.70;98.00;;;;;;5095273;28;20524;-65
2022/06/22 00:33:17;;;;;;;3.43;2.30;;;19.70;98.10;;;;;;5095229;28;21011;-65
2022/06/22 00:35:50;;;;;;;7.50;2.60;;;19.80;98.20;;;;;;5094819;28;20438;-65
2022/06/22 00:38:20;;;;;;;6.20;2.10;;;19.80;98.00;;;;;;5095158;28;20471;-66
2022/06/22 00:40:51;;;;;;;8.07;2.83;;;19.80;98.60;;;;;;5095007;28;20566;-65
2022/06/22 00:43:19;;;;;;;5.07;2.70;;;19.80;98.80;;;;;;5095106;28;20463;-65
2022/06/22 00:45:48;;;;;;;5.33;2.70;;;19.80;98.80;;;;;;5094764;28;20442;-65
2022/06/22 00:48:23;;;;;;;3.83;2.90;;;19.80;99.00;;;;;;5094919;28;20771;-65
2022/06/22 00:50:57;;;;;;;5.10;2.90;;;19.90;98.90;;;;;;5094960;28;20509;-65
2022/06/22 00:53:32;;;;;;;7.97;3.47;;;19.80;98.90;;;;;;5094680;28;20451;-65
2022/06/22 00:56:05;;;;;;;5.50;3.63;;;19.80;99.00;;;;;;5094925;28;20427;-66
2022/06/22 00:58:39;;;;;;;10.40;3.00;;;19.90;99.30;;;;;;5094520;28;20955;-65
2022/06/22 01:01:14;;;;;;;5.93;2.73;;;19.80;99.30;;;;;;5094935;28;20489;-65
2022/06/22 01:03:50;;;;;;;6.10;3.30;;;19.90;99.50;;;;;;5094810;28;20793;-68
2022/06/22 01:06:24;;;;;;;6.80;3.10;;;19.90;99.10;;;;;;5094548;28;20481;-65
2022/06/22 01:08:58;;;;;;;4.50;3.17;;;19.90;98.80;;;;;;5094448;28;20477;-65
2022/06/22 01:14:19;;;;;;;11.37;3.80;;;19.80;99.60;;;;;;5094439;28;20426;-65
2022/06/22 01:16:50;;;;;;;4.70;3.33;;;19.80;99.90;;;;;;5094698;28;20470;-66
2022/06/22 01:19:30;;;;;;;6.30;3.60;;;19.80;99.80;;;;;;5093989;28;20475;-65
2022/06/22 01:22:12;;;;;;;7.73;3.30;;;19.80;99.60;;;;;;5094176;28;20442;-65
2022/06/22 01:27:25;;;;;;;4.80;2.87;;;19.70;98.60;;;;;;5050381;28;20885;-65
2022/06/22 01:29:55;;;;;;;5.37;3.20;;;19.70;98.70;;;;;;5011152;28;20243;-65
2022/06/22 01:32:25;;;;;;;10.57;3.70;;;19.70;99.00;;;;;;5013956;28;20984;-65
2022/06/22 01:34:56;;;;;;;6.60;3.43;;;19.60;98.80;;;;;;5014159;28;20618;-65
2022/06/22 01:37:26;;;;;;;4.70;3.10;;;19.60;98.70;;;;;;5014336;28;20521;-65
2022/06/22 01:39:59;;;;;;;6.53;3.90;;;19.60;98.90;;;;;;5013721;28;21048;-65
2022/06/22 01:42:35;;;;;;;7.70;3.50;;;19.60;99.00;;;;;;5013951;28;20446;-65
2022/06/22 01:45:10;;;;;;;7.03;4.53;;;19.50;98.90;;;;;;5013867;28;20549;-66
2022/06/22 01:47:42;;;;;;;6.40;4.07;;;19.60;99.20;;;;;;5013957;28;20491;-65
2022/06/22 01:50:18;;;;;;;7.13;4.13;;;19.50;99.50;;;;;;5013686;28;20550;-65
2022/06/22 01:52:53;;;;;;;7.53;3.80;;;19.50;99.60;;;;;;5013489;28;20594;-65
2022/06/22 01:55:34;;;;;;;9.63;4.00;;;19.50;99.90;;;;;;5013869;28;20541;-65
2022/06/22 01:58:23;;;;;;;7.43;3.73;;;19.60;99.90;;;;;;5013703;28;20534;-65
2022/06/22 02:00:56;;;;;;;6.90;3.40;;;19.50;99.50;;;;;;5013581;28;20585;-65
2022/06/22 02:03:28;;;;;;;8.00;4.97;;;19.50;99.70;;;;;;5013662;28;20521;-65
2022/06/22 02:06:00;;;;;;;4.17;3.77;;;19.50;99.70;;;;;;5013636;28;20779;-66
2022/06/22 02:08:32;;;;;;;6.90;3.70;;;19.40;99.70;;;;;;5013747;28;20478;-65
2022/06/22 02:11:05;;;;;;;5.40;3.83;;;19.40;99.90;;;;;;5013188;28;20449;-65
2022/06/22 02:13:40;;;;;;;6.17;3.53;;;19.40;99.90;;;;;;5013350;28;20526;-66
2022/06/22 02:16:15;;;;;;;7.00;4.13;;;19.40;99.90;;;;;;5013509;28;20438;-65
2022/06/22 02:18:47;;;;;;;6.03;4.33;;;19.40;99.90;;;;;;5012873;28;20472;-65
2022/06/22 02:21:19;;;;;;;7.50;4.10;;;19.40;99.90;;;;;;5013378;28;20518;-65
2022/06/22 02:23:51;;;;;;;8.13;4.00;;;19.30;99.90;;;;;;5013369;28;20983;-65
2022/06/22 02:26:22;;;;;;;5.67;4.10;;;19.40;99.90;;;;;;5013452;28;20529;-65
2022/06/22 02:28:51;;;;;;;6.27;3.87;;;19.30;99.90;;;;;;5012844;28;20993;-65
2022/06/22 02:31:20;;;;;;;7.17;4.97;;;19.40;99.90;;;;;;5013024;28;20540;-65
2022/06/22 02:33:50;;;;;;;4.40;3.47;;;19.40;99.90;;;;;;5012941;28;20534;-65
2022/06/22 02:36:17;;;;;;;5.73;3.70;;;19.40;99.90;;;;;;5013103;28;20946;-66
2022/06/22 02:38:47;;;;;;;8.50;5.33;;;19.40;99.90;;;;;;5012545;28;20486;-65
2022/06/22 02:46:49;;;;;;;7.33;3.73;;;19.30;99.90;;;;;;5013135;28;20481;-65
2022/06/22 02:49:22;;;;;;;6.30;4.80;;;19.20;99.90;;;;;;5013142;28;20435;-65
2022/06/22 02:51:50;;;;;;;8.13;5.03;;;19.20;99.90;;;;;;5012958;28;20529;-65
2022/06/22 02:54:27;;;;;;;9.30;5.23;;;19.20;99.90;;;;;;5012850;28;20485;-65
2022/06/22 02:57:04;;;;;;;6.53;4.27;;;19.20;99.90;;;;;;5012824;28;20461;-65
2022/06/22 02:59:33;;;;;;;11.07;5.10;;;19.10;99.90;;;;;;5012852;28;20473;-65
2022/06/22 03:02:01;;;;;;;7.57;5.97;;;19.10;99.90;;;;;;5012779;28;20477;-65
2022/06/22 03:04:29;;;;;;;11.33;4.77;;;19.10;99.90;;;;;;5012960;28;20529;-65
2022/06/22 03:06:56;;;;;;;7.57;4.50;;;19.00;99.90;;;;;;5012859;28;20441;-65
2022/06/22 03:09:26;;;;;;;8.50;5.27;;;19.00;99.90;;;;;;5012631;28;20530;-65
2022/06/22 03:11:56;;;;;;;11.27;5.60;;;19.00;99.90;;;;;;5012924;28;20447;-65
2022/06/22 03:14:27;;;;;;;6.40;4.60;;;19.00;99.90;;;;;;5013180;28;20528;-65
2022/06/22 03:16:59;;;;;;;7.53;4.67;;;19.00;99.90;;;;;;5012625;28;20442;-65
2022/06/22 03:19:31;;;;;;;8.00;5.70;;;19.00;99.90;;;;;;5012881;28;20478;-65
2022/06/22 03:21:59;;;;;;;9.20;5.20;;;19.00;99.90;;;;;;5012549;28;20529;-65
2022/06/22 03:24:35;;;;;;;9.03;5.50;;;19.00;99.90;;;;;;5012553;28;20474;-65
2022/06/22 03:27:08;;;;;;;6.87;5.37;;;19.10;99.90;;;;;;5012650;28;20529;-65
2022/06/22 03:29:38;;;;;;;6.23;4.50;;;19.10;99.90;;;;;;5013231;28;20554;-66
2022/06/22 03:32:11;;;;;;;7.30;4.37;;;19.00;99.90;;;;;;5016459;28;20466;-66
2022/06/22 03:34:42;;;;;;;8.07;5.63;;;19.00;99.90;;;;;;5016162;28;20427;-65
2022/06/22 03:37:13;;;;;;;6.30;4.87;;;19.00;99.90;;;;;;5016329;28;20492;-65
2022/06/22 03:39:44;;;;;;;7.63;5.30;;;19.00;99.90;;;;;;5016237;28;20829;-66
2022/06/22 03:42:16;;;;;;;8.53;5.63;;;19.00;99.90;;;;;;5015880;28;20530;-66
2022/06/22 03:44:50;;;;;;;8.90;4.50;;;19.00;99.90;;;;;;5016228;28;20526;-65
2022/06/22 03:47:23;;;;;;;6.47;4.90;;;18.80;99.90;;;;;;5016117;28;20482;-65
2022/06/22 03:49:58;;;;;;;9.63;5.03;;;18.80;99.90;;;;;;5015593;28;20466;-66
2022/06/22 03:52:31;;;;;;;8.93;4.87;;;18.90;99.90;;;;;;5016248;28;20522;-65
2022/06/22 03:55:02;;;;;;;16.23;5.00;;;18.80;99.90;;;;;;5015617;28;20439;-65
2022/06/22 03:57:33;;;;;;;7.33;4.37;;;18.80;99.90;;;;;;5015830;28;20443;-67
2022/06/22 04:00:00;;;;;;;9.80;4.17;;;18.70;99.90;;;;;;5015880;28;21004;-66
2022/06/22 04:02:29;;;;;;;9.03;4.80;;;18.70;99.90;;;;;;5015684;28;20492;-65
2022/06/22 04:04:58;;;;;;;8.37;4.57;;;18.60;99.90;;;;;;5015996;28;20530;-65
2022/06/22 04:07:27;;;;;;;9.90;4.23;;;18.50;99.90;;;;;;5016019;28;20458;-65
2022/06/22 04:09:57;;;;;;;7.23;3.90;;;18.60;99.90;;;;;;5015785;28;20912;-65
2022/06/22 04:12:30;;;;;;;5.30;3.90;;;18.70;99.90;;;;;;5015962;28;20525;-65
2022/06/22 04:15:10;;;;;;;8.17;4.17;;;18.80;99.90;;;;;;5015540;28;20976;-65
2022/06/22 04:17:43;;;;;;;11.67;5.80;;;18.80;99.90;;;;;;5015506;28;20478;-65
2022/06/22 04:20:18;;;;;;;10.23;3.63;;;18.80;99.90;;;;;;5015437;28;20513;-65
2022/06/22 04:22:49;;;;;;;6.67;4.37;;;18.90;99.90;;;;;;5015176;28;20547;-65
2022/06/22 04:25:26;;;;;;;10.60;4.47;;;18.90;99.90;;;;;;5015472;28;20513;-65
2022/06/22 04:27:55;;;;;;;7.20;4.43;;;19.00;99.90;;;;;;5015246;28;20995;-66
2022/06/22 04:30:26;;;;;;;9.03;4.50;;;19.10;99.90;;;;;;5015369;28;20521;-65
2022/06/22 04:33:03;;;;;;;8.73;4.30;;;19.30;99.90;;;;;;5015473;28;20855;-65
2022/06/22 04:35:35;;;;;;;9.60;4.30;;;19.40;99.90;;;;;;5015310;28;20533;-66
2022/06/22 04:38:13;;;;;;;8.23;4.47;;;19.50;99.90;;;;;;5015420;28;20502;-65
2022/06/22 04:40:52;;;;;;;8.50;3.80;;;19.60;99.90;;;;;;5014911;28;20525;-65
2022/06/22 04:43:19;;;;;;;10.57;4.20;;;19.70;99.90;;;;;;5014942;28;20542;-65
2022/06/22 04:45:47;;;;;;;10.37;4.70;;;19.80;99.90;;;;;;5015278;28;20546;-65
2022/06/22 04:48:20;;;;;;;8.87;4.00;;;19.90;99.90;;;;;;5015210;28;20530;-65
2022/06/22 04:50:50;;;;;;;9.07;4.10;;;20.00;99.90;;;;;;5015309;28;20835;-65
2022/06/22 04:53:22;;;;;;;7.47;3.80;;;20.10;99.90;;;;;;5014925;28;20521;-65
2022/06/22 04:55:51;;;;;;;9.83;4.30;;;20.20;99.90;;;;;;5015164;28;20478;-65
2022/06/22 04:58:34;;;;;;;5.70;3.67;;;20.30;99.90;;;;;;5014849;28;20521;-65
2022/06/22 05:01:02;;;;;;;14.10;4.30;;;20.40;99.90;;;;;;5014487;28;20513;-65
2022/06/22 05:03:31;;;;;;;8.57;4.37;;;20.50;99.90;;;;;;5015033;28;20443;-66
2022/06/22 05:06:03;;;;;;;7.23;4.10;;;20.70;99.90;;;;;;5014642;28;20527;-66
2022/06/22 05:08:37;;;;;;;7.73;4.33;;;20.80;99.90;;;;;;5014828;28;20482;-66
2022/06/22 05:11:12;;;;;;;9.80;5.23;;;20.90;99.90;;;;;;5014250;28;20981;-65
2022/06/22 05:13:42;;;;;;;8.77;4.40;;;20.90;99.90;;;;;;5014438;28;20527;-65
2022/06/22 05:16:17;;;;;;;9.20;4.90;;;21.00;99.80;;;;;;5014624;28;20987;-66
2022/06/22 05:18:48;;;;;;;11.27;4.37;;;21.00;99.80;;;;;;5014362;28;20442;-66
2022/06/22 05:21:19;;;;;;;8.77;5.00;;;21.10;99.60;;;;;;5014412;28;20573;-65
2022/06/22 05:23:51;;;;;;;8.17;3.70;;;21.10;99.00;;;;;;5014414;28;20438;-65
2022/06/22 05:26:21;;;;;;;11.07;5.50;;;21.20;98.90;;;;;;5014125;28;20534;-65
2022/06/22 05:28:55;;;;;;;8.90;5.73;;;21.30;99.10;;;;;;5014038;28;21465;-65
2022/06/22 05:31:26;;;;;;;7.00;4.40;;;21.40;99.20;;;;;;5014252;28;20997;-65
2022/06/22 05:33:58;;;;;;;11.33;5.50;;;21.50;99.20;;;;;;5014232;28;20439;-65
2022/06/22 05:36:27;;;;;;;10.80;4.53;;;21.70;99.30;;;;;;5014196;28;20542;-65
2022/06/22 05:38:56;;;;;;;8.57;4.30;;;21.70;99.10;;;;;;5013981;28;20956;-65
2022/06/22 05:41:30;;;;;;;7.33;4.23;;;21.80;98.30;;;;;;5013926;28;20569;-65
2022/06/22 05:43:59;;;;;;;7.93;4.00;;;21.90;97.10;;;;;;5014184;28;20443;-65
2022/06/22 05:46:27;;;;;;;10.93;4.60;;;21.90;96.40;;;;;;5013900;28;20525;-65
2022/06/22 05:48:56;;;;;;;12.07;5.63;;;22.00;96.80;;;;;;5014093;28;20438;-65
2022/06/22 05:51:35;;;;;;;13.40;4.77;;;22.10;97.50;;;;;;5014081;28;20479;-66
2022/06/22 05:54:06;;;;;;;10.07;4.47;;;22.20;96.30;;;;;;5013595;28;20863;-66
2022/06/22 05:56:38;;;;;;;12.13;4.60;;;22.20;95.20;;;;;;5013842;28;20837;-65
2022/06/22 05:59:19;;;;;;;6.60;4.03;;;22.30;94.90;;;;;;5013382;28;20521;-66
2022/06/22 06:01:55;;;;;;;10.83;3.80;;;22.30;93.60;;;;;;5013860;28;20570;-65
2022/06/22 06:04:31;;;;;;;7.70;3.17;;;22.30;94.00;;;;;;5013770;28;20452;-65
2022/06/22 06:07:04;;;;;;;8.90;4.00;;;22.40;93.80;;;;;;5013747;28;20477;-66
2022/06/22 06:09:33;;;;;;;7.30;3.93;;;22.40;93.40;;;;;;5014031;28;20527;-66
2022/06/22 06:12:04;;;;;;;10.13;4.60;;;22.50;93.80;;;;;;5013552;28;20447;-67
2022/06/22 06:14:35;;;;;;;9.00;4.20;;;22.40;92.70;;;;;;5013763;28;20525;-66
2022/06/22 06:17:09;;;;;;;8.83;4.00;;;22.40;93.10;;;;;;5013067;28;20861;-67
2022/06/22 06:19:41;;;;;;;6.87;3.80;;;22.40;92.10;;;;;;4992707;28;20534;-66
2022/06/22 06:22:10;;;;;;;8.67;4.07;;;22.30;92.60;;;;;;4998346;28;20471;-66
2022/06/22 06:27:34;;;;;;;7.40;4.80;;;22.30;93.10;;;;;;4995637;28;20535;-66
2022/06/22 06:27:35;;;;;;;10.87;4.40;;;22.30;93.20;;;;;;4992997;28;20518;-65
2022/06/22 06:30:07;;;;;;;7.63;4.60;;;22.30;93.60;;;;;;4993058;28;20787;-66
2022/06/22 06:32:40;;;;;;;13.70;4.23;;;22.40;93.00;;;;;;5001894;28;20443;-66
2022/06/22 06:35:17;;;;;;;9.53;4.10;;;22.40;93.00;;;;;;4999550;28;20542;-66
2022/06/22 06:37:51;;;;;;;14.63;4.87;;;22.40;93.00;;;;;;5000431;28;20443;-65
2022/06/22 06:40:25;;;;;;;10.27;4.43;;;22.30;92.80;;;;;;4999278;28;20537;-66
2022/06/22 06:43:00;;;;;;;11.17;4.40;;;22.30;92.80;;;;;;5000590;28;20568;-66
2022/06/22 06:45:30;;;;;;;10.20;5.00;;;22.40;93.70;;;;;;5002959;28;20508;-65
2022/06/22 06:48:03;;;;;;;6.00;4.00;;;22.40;93.20;;;;;;5000469;28;20480;-66
2022/06/22 06:50:36;;;;;;;7.23;4.53;;;22.40;93.00;;;;;;4996207;28;20569;-66
2022/06/22 06:53:14;;;;;;;14.97;5.37;;;22.30;93.10;;;;;;4997884;28;20452;-66
2022/06/22 06:55:45;;;;;;;7.43;4.47;;;22.20;93.70;;;;;;4999358;28;20503;-65
2022/06/22 06:58:19;;;;;;;12.37;4.70;;;22.20;93.80;;;;;;5003866;28;20527;-66
2022/06/22 07:00:48;;;;;;;8.47;4.83;;;22.30;94.40;;;;;;5004215;28;20521;-66
2022/06/22 07:03:20;;;;;;;9.40;4.77;;;22.30;94.10;;;;;;5003849;28;20470;-66
2022/06/22 07:05:51;;;;;;;7.03;3.87;;;22.30;94.30;;;;;;5006936;28;20514;-66
2022/06/22 07:08:29;;;;;;;11.70;4.57;;;22.40;93.90;;;;;;5007599;28;20449;-66
2022/06/22 07:11:01;;;;;;;8.90;5.20;;;22.50;94.20;;;;;;5007951;28;20441;-66
2022/06/22 07:13:33;;;;;;;7.73;4.30;;;22.60;94.30;;;;;;5005105;28;20862;-66
2022/06/22 07:16:04;;;;;;;7.40;4.03;;;22.80;94.00;;;;;;5004869;28;20476;-67
2022/06/22 07:18:36;;;;;;;12.67;5.43;;;23.00;93.90;;;;;;5007953;28;20531;-66
2022/06/22 07:21:17;;;;;;;10.93;4.90;;;23.20;93.70;;;;;;5006568;28;20528;-66
2022/06/22 07:23:49;;;;;;;11.23;4.53;;;23.30;93.10;;;;;;5005078;28;20528;-66
2022/06/22 07:26:24;;;;;;;10.43;4.40;;;23.40;93.30;;;;;;5005833;28;20473;-65
2022/06/22 07:28:58;;;;;;;11.00;4.07;;;23.40;92.70;;;;;;5006502;28;20493;-66
2022/06/22 07:31:28;;;;;;;8.50;3.80;;;23.50;92.20;;;;;;5003944;28;20523;-66
2022/06/22 07:34:00;;;;;;;7.83;5.00;;;23.70;90.40;;;;;;5003916;28;20977;-66
2022/06/22 07:36:35;;;;;;;13.13;5.13;;;23.70;91.00;;;;;;5005691;28;20999;-68
2022/06/22 07:39:09;;;;;;;9.90;4.90;;;23.60;91.10;;;;;;5009043;28;20843;-66
2022/06/22 07:41:36;;;;;;;10.53;4.40;;;23.60;91.30;;;;;;5008019;28;20587;-66
2022/06/22 07:44:07;;;;;;;16.07;5.20;;;23.60;91.20;;;;;;5011158;28;20529;-66
2022/06/22 07:46:39;;;;;;;14.50;4.20;;;23.60;91.10;;;;;;5008510;28;20523;-67
2022/06/22 07:49:10;;;;;;;9.17;4.60;;;23.60;91.20;;;;;;5008547;28;20532;-66
2022/06/22 07:51:45;;;;;;;8.60;4.73;;;23.60;91.30;;;;;;5008860;28;20484;-66
2022/06/22 07:54:17;;;;;;;9.37;4.50;;;23.60;90.70;;;;;;5009578;28;20884;-66
2022/06/22 07:56:55;;;;;;;9.73;4.93;;;23.60;91.10;;;;;;5009788;28;20545;-66
2022/06/22 07:59:28;;;;;;;10.20;4.00;;;23.50;91.30;;;;;;5002612;28;20495;-66
2022/06/22 08:01:59;;;;;;;8.83;5.00;;;23.40;91.60;;;;;;5010191;28;20578;-66
2022/06/22 08:04:31;;;;;;;12.10;5.30;;;23.20;92.30;;;;;;5006283;28;20556;-65
2022/06/22 08:07:04;;;;;;;9.90;4.97;;;23.20;92.70;;;;;;5010237;28;20793;-66
2022/06/22 08:09:36;;;;;;;11.53;5.00;;;23.10;91.90;;;;;;5009187;28;20503;-67
2022/06/22 08:12:07;;;;;;;10.40;4.30;;;23.00;92.40;;;;;;5013222;28;20528;-66
2022/06/22 08:14:39;;;;;;;7.43;4.60;;;23.00;92.40;;;;;;5009776;28;20532;-66
2022/06/22 08:17:12;;;;;;;9.07;4.80;;;23.00;92.40;;;;;;5006084;28;20448;-66
2022/06/22 08:19:40;;;;;;;11.50;4.70;;;22.90;92.60;;;;;;5012220;28;21022;-66
2022/06/22 08:22:11;;;;;;;15.43;4.10;;;23.00;92.90;;;;;;5012287;28;20567;-66
2022/06/22 08:24:42;;;;;;;18.07;5.67;;;22.90;92.90;;;;;;4995197;28;20529;-66
2022/06/22 08:27:13;;;;;;;11.40;4.93;;;22.90;93.30;;;;;;5011058;28;20518;-67
2022/06/22 08:29:40;;;;;;;11.70;4.77;;;22.90;92.50;;;;;;5004973;28;20472;-66
2022/06/22 08:32:12;;;;;;;9.70;4.57;;;22.80;92.00;;;;;;5013043;28;20532;-66
2022/06/22 08:34:43;;;;;;;10.90;6.40;;;22.80;92.10;;;;;;5012555;28;20455;-66
2022/06/22 08:37:17;;;;;;;13.00;5.87;;;22.80;92.70;;;;;;5010490;28;20536;-66
2022/06/22 08:39:48;;;;;;;12.57;4.10;;;22.90;93.20;;;;;;4995008;28;20482;-66
2022/06/22 08:42:32;;;;;;;7.97;4.13;;;23.00;92.90;;;;;;5007469;28;20485;-66
2022/06/22 08:45:12;;;;;;;8.27;4.23;;;23.00;93.10;;;;;;4999585;28;20508;-65
2022/06/22 08:47:56;;;;;;;9.13;4.17;;;23.10;92.80;;;;;;5007989;28;20904;-66
2022/06/22 08:50:54;;;;;;;14.13;7.03;;;23.10;92.60;;;;;;5013271;28;20449;-66
2022/06/22 08:53:35;;;;;;;14.80;4.10;;;23.10;91.50;;;;;;4993983;28;21593;-66
2022/06/22 08:56:33;;;;;;;11.73;4.87;;;23.10;91.30;;;;;;4998551;28;20449;-66
2022/06/22 08:59:21;;;;;;;12.27;3.93;;;23.20;91.80;;;;;;5005723;28;20488;-70
2022/06/22 09:01:57;;;;;;;14.47;4.50;;;23.30;91.80;;;;;;5004761;28;20516;-66
2022/06/22 09:04:41;;;;;;;15.50;9.70;;;23.40;91.30;;;;;;5008165;28;20942;-66
2022/06/22 09:07:28;;;;;;;19.10;5.40;;;23.60;91.70;;;;;;4999062;28;20474;-66
2022/06/22 09:10:12;;;;;;;11.93;5.53;;;23.70;90.70;;;;;;4994789;28;20446;-66
2022/06/22 09:12:55;;;;;;;13.00;6.20;;;23.80;90.80;;;;;;5005414;28;20534;-66
2022/06/22 09:15:39;;;;;;;7.30;4.17;;;24.00;91.10;;;;;;5004063;28;20956;-66
2022/06/22 09:18:33;;;;;;;10.00;4.20;;;24.10;91.00;;;;;;5002943;28;20509;-66
2022/06/22 09:21:12;;;;;;;13.73;4.47;;;24.30;91.20;;;;;;5005455;28;20485;-70
2022/06/22 09:23:47;;;;;;;8.80;4.60;;;24.50;91.60;;;;;;4996588;28;20889;-67
2022/06/22 09:26:28;;;;;;;12.00;4.53;;;24.90;91.90;;;;;;4995959;28;20542;-66
2022/06/22 09:28:59;;;;;;;14.37;4.40;;;25.40;91.90;;;;;;4992046;28;20503;-66
2022/06/22 09:31:51;;;;;;;8.73;4.50;;;25.90;91.70;;;;;;5003810;28;20471;-66
2022/06/22 09:34:59;;;;;;;17.53;5.67;;;26.50;90.90;;;;;;4998691;28;20440;-66
2022/06/22 09:37:47;;;;;;;10.03;4.77;;;27.00;88.10;;;;;;4977004;28;20850;-66
2022/06/22 09:40:35;;;;;;;12.47;4.93;;;27.20;82.70;;;;;;4996846;28;20436;-66
2022/06/22 09:43:35;;;;;;;9.20;4.80;;;27.30;82.50;;;;;;4997965;28;20825;-66
2022/06/22 09:46:29;;;;;;;14.23;4.97;;;27.30;81.40;;;;;;4994666;28;20452;-66
2022/06/22 09:49:25;;;;;;;16.00;5.00;;;27.30;80.20;;;;;;4998965;28;20451;-66
2022/06/22 09:52:11;;;;;;;10.70;4.43;;;27.30;78.90;;;;;;4997929;28;20535;-66
2022/06/22 09:58:11;;;;;;;18.03;4.73;;;27.40;76.10;;;;;;4958860;28;20432;-66
2022/06/22 10:00:50;;;;;;;9.50;5.57;;;27.60;75.70;;;;;;4996755;28;20442;-66
2022/06/22 10:04:04;;;;;;;9.50;4.13;;;27.60;74.10;;;;;;4997116;28;20523;-66
2022/06/22 10:06:54;;;;;;;12.47;3.93;;;27.60;74.30;;;;;;4992820;28;20451;-66
2022/06/22 10:09:37;;;;;;;13.97;5.10;;;27.40;66.70;;;;;;4996475;28;20994;-66
2022/06/22 10:12:19;;;;;;;9.43;4.40;;;27.30;66.20;;;;;;4996078;28;22262;-67
2022/06/22 10:15:03;;;;;;;11.40;4.97;;;27.10;67.40;;;;;;4995243;28;20906;-67
2022/06/22 10:17:59;;;;;;;11.40;4.57;;;26.90;66.20;;;;;;4996437;28;20440;-66
2022/06/22 10:20:40;;;;;;;12.33;4.50;;;26.70;67.70;;;;;;4992036;28;20494;-66
2022/06/22 10:23:30;;;;;;;8.57;5.17;;;26.50;67.90;;;;;;4995969;28;20545;-66
2022/06/22 10:26:10;;;;;;;12.73;5.90;;;26.40;70.00;;;;;;4994992;28;21179;-66
2022/06/22 10:29:16;;;;;;;17.33;6.60;;;26.30;71.10;;;;;;4992081;28;21044;-66
2022/06/22 10:31:57;;;;;;;13.47;8.00;;;26.20;73.20;;;;;;4995051;28;21400;-66
2022/06/22 10:34:39;;;;;;;13.40;6.67;;;26.10;74.10;;;;;;4991115;28;20436;-67
2022/06/22 10:37:47;;;;;;;14.50;6.00;;;26.00;75.80;;;;;;4991918;28;20914;-68
2022/06/22 10:46:52;;;;;;;20.73;6.40;;;25.90;78.40;;;;;;4991292;28;20480;-66
2022/06/22 10:49:43;;;;;;;12.80;5.97;;;26.00;77.90;;;;;;4988711;28;20451;-66
2022/06/22 10:52:47;;;;;;;10.93;5.27;;;26.00;76.60;;;;;;4996968;28;20485;-66
2022/06/22 10:55:49;;;;;;;8.03;4.27;;;26.00;75.30;;;;;;4999447;28;20467;-68
2022/06/22 10:58:36;;;;;;;10.67;4.37;;;25.90;74.50;;;;;;5008353;28;20993;-67
2022/06/22 11:01:33;;;;;;;13.23;5.40;;;25.90;74.70;;;;;;5008999;28;20535;-66
2022/06/22 11:04:40;;;;;;;25.83;6.37;;;25.90;75.50;;;;;;5000191;28;20574;-66
2022/06/22 11:07:43;;;;;;;9.33;5.50;;;25.90;75.10;;;;;;5006463;28;20529;-67
2022/06/22 11:10:30;;;;;;;17.63;6.07;;;25.90;74.20;;;;;;5005386;28;20438;-66
2022/06/22 11:13:17;;;;;;;19.20;6.03;;;26.00;73.90;;;;;;4998687;28;20883;-66
2022/06/22 11:16:01;;;;;;;16.90;6.43;;;26.10;75.10;;;;;;5005008;28;20439;-66
2022/06/22 11:19:04;;;;;;;10.17;5.70;;;26.20;75.70;;;;;;5002493;28;20454;-66
2022/06/22 11:21:45;;;;;;;12.30;5.17;;;26.30;74.70;;;;;;5002225;28;20454;-66
2022/06/22 11:24:45;;;;;;;11.03;6.03;;;26.40;74.20;;;;;;5006654;28;20537;-66
2022/06/22 11:33:37;;;;;;;9.73;5.20;;;27.20;73.20;;;;;;5002714;28;20431;-66
2022/06/22 11:36:22;;;;;;;13.27;6.43;;;27.40;71.70;;;;;;4999695;28;20767;-66
2022/06/22 11:39:20;;;;;;;13.40;5.37;;;27.60;70.30;;;;;;5002399;28;20997;-66
2022/06/22 11:42:02;;;;;;;13.40;4.90;;;27.70;68.40;;;;;;5004954;28;20534;-66
2022/06/22 11:48:08;;;;;;;8.27;4.33;;;27.70;67.10;;;;;;5004566;28;21046;-66
2022/06/22 11:50:47;;;;;;;11.20;4.70;;;27.70;67.90;;;;;;5001100;28;20447;-66
2022/06/22 11:53:29;;;;;;;13.53;5.80;;;27.60;66.60;;;;;;5007829;28;20528;-66
2022/06/22 11:56:01;;;;;;;14.90;7.33;;;27.60;66.10;;;;;;5003250;28;20509;-66
2022/06/22 11:58:46;;;;;;;11.60;5.73;;;27.50;65.60;;;;;;5007737;28;20474;-66
2022/06/22 12:01:46;;;;;;;10.73;5.27;;;27.30;65.20;;;;;;5005434;28;20438;-66
2022/06/22 12:04:42;;;;;;;12.13;4.00;;;27.10;65.90;;;;;;5004806;28;20572;-66
2022/06/22 12:07:33;;;;;;;17.00;3.87;;;27.00;66.50;;;;;;5004222;28;20961;-66
2022/06/22 12:10:31;;;;;;;13.43;4.07;;;26.80;64.10;;;;;;5004137;28;20930;-67
2022/06/22 12:13:13;;;;;;;13.83;4.10;;;26.60;62.80;;;;;;4996494;28;20789;-66
2022/06/22 12:15:55;;;;;;;15.43;5.60;;;26.50;63.70;;;;;;4996076;28;20475;-66
2022/06/22 12:18:47;;;;;;;8.33;3.97;;;26.50;64.70;;;;;;4995724;28;20470;-66
2022/06/22 12:21:35;;;;;;;14.77;4.50;;;26.50;65.90;;;;;;4996227;28;20530;-66
2022/06/22 12:24:09;;;;;;;11.13;4.30;;;26.50;66.70;;;;;;4995952;28;20521;-66
2022/06/22 12:26:48;;;;;;;9.37;4.77;;;26.50;67.10;;;;;;4995541;28;20521;-70
2022/06/22 12:29:43;;;;;;;11.17;4.90;;;26.50;68.20;;;;;;4995613;28;20837;-66
2022/06/22 12:32:18;;;;;;;11.60;5.70;;;26.40;68.50;;;;;;4995832;28;20479;-66
2022/06/22 12:34:53;;;;;;;14.93;5.70;;;26.40;68.40;;;;;;4995801;28;20843;-66
2022/06/22 12:37:29;;;;;;;9.00;5.40;;;26.40;69.70;;;;;;4995824;28;20861;-66
2022/06/22 12:39:59;;;;;;;15.63;6.07;;;26.30;69.80;;;;;;4995992;28;20477;-66
2022/06/22 12:42:48;;;;;;;9.60;5.27;;;26.20;70.40;;;;;;4995472;28;20794;-66
2022/06/22 12:45:30;;;;;;;16.20;5.40;;;26.20;70.80;;;;;;4995192;28;20435;-66
2022/06/22 12:48:38;;;;;;;11.27;5.83;;;26.10;71.60;;;;;;4995408;28;20475;-66
2022/06/22 12:51:33;;;;;;;12.03;6.10;;;26.00;72.20;;;;;;4995355;28;20470;-67
2022/06/22 12:54:07;;;;;;;8.37;6.07;;;25.90;73.10;;;;;;4973827;28;20447;-68
2022/06/22 12:56:41;;;;;;;12.73;5.63;;;25.90;73.00;;;;;;4995391;28;20497;-66
2022/06/22 12:59:14;;;;;;;14.90;5.73;;;25.90;74.30;;;;;;4995126;28;20846;-67
2022/06/22 13:01:42;;;;;;;10.37;4.60;;;25.90;74.00;;;;;;4994919;28;20424;-66
2022/06/22 13:04:16;;;;;;;16.20;4.83;;;25.90;72.60;;;;;;4994927;28;20475;-66
2022/06/22 13:06:58;;;;;;;9.83;4.00;;;26.00;73.40;;;;;;4995039;28;20440;-66
2022/06/22 13:09:33;;;;;;;12.50;4.50;;;26.30;73.90;;;;;;4995318;28;20439;-66
2022/06/22 13:12:21;;;;;;;11.50;4.80;;;26.60;72.60;;;;;;4994824;28;20505;-67
2022/06/22 13:14:58;;;;;;;14.63;4.53;;;26.80;72.20;;;;;;4994820;28;20436;-66
2022/06/22 13:17:29;;;;;;;17.27;4.93;;;26.90;71.50;;;;;;4994864;28;20471;-66
2022/06/22 13:20:26;;;;;;;12.87;4.93;;;27.00;71.10;;;;;;4995163;28;20490;-66
2022/06/22 13:23:02;;;;;;;7.57;4.50;;;27.00;71.10;;;;;;4994888;28;20533;-67
2022/06/22 13:25:39;;;;;;;10.97;4.40;;;27.00;71.40;;;;;;4994735;28;20479;-66
2022/06/22 13:28:17;;;;;;;9.53;4.97;;;27.00;69.60;;;;;;4994348;28;20907;-67
2022/06/22 13:30:50;;;;;;;8.03;4.30;;;26.90;68.60;;;;;;4994917;28;20490;-66
2022/06/22 13:33:26;;;;;;;18.00;6.23;;;26.90;69.40;;;;;;4994748;28;20519;-66
2022/06/22 13:35:57;;;;;;;11.43;3.60;;;26.90;68.80;;;;;;4994616;28;21016;-66
2022/06/22 13:38:55;;;;;;;10.53;3.50;;;27.00;67.90;;;;;;4994657;28;20440;-66
2022/06/22 13:41:36;;;;;;;8.17;2.93;;;27.10;66.50;;;;;;4994708;28;20447;-66
2022/06/22 13:44:20;;;;;;;10.87;3.60;;;27.10;65.40;;;;;;4994631;28;20583;-66
2022/06/22 13:47:05;;;;;;;11.77;3.90;;;27.10;64.30;;;;;;4994398;28;20523;-66
2022/06/22 13:49:41;;;;;;;8.83;2.73;;;27.00;63.70;;;;;;4994242;28;20475;-67
2022/06/22 13:52:23;;;;;;;13.27;3.53;;;26.90;62.90;;;;;;4994021;28;20439;-67
2022/06/22 13:55:20;;;;;;;17.73;4.50;;;26.70;63.80;;;;;;4993981;28;20902;-66
2022/06/22 13:57:56;;;;;;;8.80;3.20;;;26.50;64.10;;;;;;4985700;28;20483;-66
2022/06/22 14:00:27;;;;;;;16.20;3.30;;;26.30;63.80;;;;;;4994325;28;20451;-66
2022/06/22 14:03:18;;;;;;;13.67;3.20;;;26.20;65.20;;;;;;4994029;28;20474;-66